createdAt,value
2023-02-21T00:02:42.834Z,22.00
2023-02-21T00:05:28.266Z,22.00
2023-02-21T00:08:13.783Z,22.00
2023-02-21T00:10:59.285Z,22.00
2023-02-21T00:13:44.928Z,22.00
2023-02-21T00:16:34.045Z,22.00
2023-02-21T00:19:21.106Z,22.00
2023-02-21T00:22:06.595Z,22.00
2023-02-21T00:24:52.084Z,22.00
2023-02-21T00:27:37.721Z,22.00
2023-02-21T00:30:23.919Z,22.00
2023-02-21T00:33:09.241Z,22.00
2023-02-21T00:35:55.940Z,22.00
2023-02-21T00:38:41.097Z,22.00
2023-02-21T00:41:26.868Z,22.00
2023-02-21T00:44:12.327Z,22.00
2023-02-21T00:46:57.925Z,22.00
2023-02-21T00:49:43.864Z,22.00
2023-02-21T00:52:30.563Z,22.00
2023-02-21T00:55:15.758Z,21.90
2023-02-21T00:58:01.051Z,22.00
2023-02-21T01:00:46.649Z,22.00
2023-02-21T01:03:32.082Z,22.00
2023-02-21T01:06:17.383Z,22.00
2023-02-21T01:09:04.949Z,22.00
2023-02-21T01:11:51.769Z,21.90
2023-02-21T01:14:37.410Z,22.00
2023-02-21T01:17:22.834Z,21.90
2023-02-21T01:20:07.946Z,21.90
2023-02-21T01:22:53.285Z,22.00
2023-02-21T01:25:40.545Z,22.00
2023-02-21T01:28:25.773Z,22.00
2023-02-21T01:31:11.334Z,22.00
2023-02-21T01:33:57.578Z,22.00
2023-02-21T01:36:43.433Z,22.00
2023-02-21T01:39:29.331Z,21.90
2023-02-21T01:42:15.943Z,22.00
2023-02-21T01:45:03.146Z,22.00
2023-02-21T01:47:49.422Z,22.00
2023-02-21T01:50:38.476Z,21.90
2023-02-21T01:53:27.829Z,21.90
2023-02-21T01:56:15.431Z,22.00
2023-02-21T01:59:03.629Z,21.90
2023-02-21T02:01:56.083Z,21.90
2023-02-21T02:04:41.600Z,22.00
2023-02-21T02:07:28.316Z,21.90
2023-02-21T02:10:14.241Z,21.90
2023-02-21T02:13:11.946Z,22.00
2023-02-21T02:15:49.283Z,21.90
2023-02-21T02:18:30.228Z,22.00
2023-02-21T02:21:26.518Z,22.00
2023-02-21T02:24:19.308Z,22.00
2023-02-21T02:27:15.145Z,22.00
2023-02-21T02:30:03.247Z,22.00
2023-02-21T02:33:01.840Z,22.00
2023-02-21T02:35:34.057Z,22.00
2023-02-21T02:38:09.876Z,22.00
2023-02-21T02:40:47.347Z,22.00
2023-02-21T02:43:20.546Z,22.00
2023-02-21T02:45:52.581Z,22.00
2023-02-21T02:48:26.083Z,22.00
2023-02-21T02:50:57.896Z,22.00
2023-02-21T02:53:28.561Z,22.00
2023-02-21T02:56:00.544Z,22.00
2023-02-21T02:58:33.630Z,22.00
2023-02-21T03:01:15.714Z,22.00
2023-02-21T03:03:53.740Z,22.00
2023-02-21T03:06:31.132Z,22.00
2023-02-21T03:09:07.209Z,22.00
2023-02-21T03:11:36.958Z,22.00
2023-02-21T03:14:10.593Z,22.00
2023-02-21T03:16:44.687Z,22.00
2023-02-21T03:19:15.191Z,22.00
2023-02-21T03:21:47.505Z,22.00
2023-02-21T03:24:16.981Z,22.00
2023-02-21T03:26:49.163Z,22.00
2023-02-21T03:29:43.760Z,22.00
2023-02-21T03:32:15.396Z,22.00
2023-02-21T03:34:44.544Z,22.00
2023-02-21T03:37:22.910Z,22.00
2023-02-21T03:39:51.045Z,22.00
2023-02-21T03:42:18.808Z,22.00
2023-02-21T03:44:47.067Z,22.00
2023-02-21T03:47:15.557Z,22.00
2023-02-21T03:49:43.930Z,22.00
2023-02-21T03:52:13.285Z,22.00
2023-02-21T03:54:42.869Z,22.00
2023-02-21T03:57:15.953Z,22.00
2023-02-21T03:59:46.412Z,22.00
2023-02-21T04:02:14.955Z,22.00
2023-02-21T04:04:43.277Z,22.00
2023-02-21T04:07:18.125Z,22.00
2023-02-21T04:09:47.496Z,22.00
2023-02-21T04:12:19.976Z,22.00
2023-02-21T04:14:47.774Z,22.00
2023-02-21T04:17:16.059Z,22.00
2023-02-21T04:19:44.867Z,22.00
2023-02-21T04:22:12.579Z,22.00
2023-02-21T04:24:40.924Z,22.00
2023-02-21T04:27:10.039Z,22.00
2023-02-21T04:29:40.946Z,22.00
2023-02-21T04:32:10.496Z,22.00
2023-02-21T04:34:38.494Z,22.00
2023-02-21T04:37:06.283Z,22.00
2023-02-21T04:39:34.034Z,22.00
2023-02-21T04:42:01.842Z,22.00
2023-02-21T04:44:32.216Z,22.00
2023-02-21T04:46:59.928Z,22.00
2023-02-21T04:49:27.704Z,22.00
2023-02-21T04:51:55.960Z,22.00
2023-02-21T04:54:23.748Z,22.00
2023-02-21T04:56:51.457Z,22.00
2023-02-21T04:59:19.184Z,22.00
2023-02-21T05:01:48.210Z,22.00
2023-02-21T05:04:15.992Z,22.00
2023-02-21T05:06:43.740Z,22.00
2023-02-21T05:09:11.460Z,22.00
2023-02-21T05:11:39.154Z,22.00
2023-02-21T05:14:06.843Z,22.00
2023-02-21T05:16:34.564Z,22.00
2023-02-21T05:19:03.593Z,22.00
2023-02-21T05:21:35.316Z,22.00
2023-02-21T05:24:04.481Z,22.00
2023-02-21T05:26:35.186Z,22.00
2023-02-21T05:29:03.120Z,22.00
2023-02-21T05:31:31.536Z,22.00
2023-02-21T05:33:59.346Z,22.00
2023-02-21T05:36:28.408Z,22.00
2023-02-21T05:38:57.144Z,22.00
2023-02-21T05:41:25.120Z,22.00
2023-02-21T05:43:53.188Z,22.00
2023-02-21T05:46:24.132Z,21.90
2023-02-21T05:48:52.168Z,21.90
2023-02-21T05:51:20.854Z,21.90
2023-02-21T05:53:50.226Z,21.90
2023-02-21T05:56:19.160Z,21.90
2023-02-21T05:58:46.909Z,21.90
2023-02-21T06:01:15.036Z,21.90
2023-02-21T06:03:43.591Z,22.00
2023-02-21T06:06:11.346Z,21.90
2023-02-21T06:08:46.255Z,21.90
2023-02-21T06:11:16.355Z,21.90
2023-02-21T06:13:44.265Z,21.90
2023-02-21T06:16:12.109Z,21.90
2023-02-21T06:18:39.828Z,21.90
2023-02-21T06:21:07.604Z,21.90
2023-02-21T06:23:35.351Z,21.90
2023-02-21T06:26:03.165Z,22.00
2023-02-21T06:28:32.681Z,22.00
2023-02-21T06:31:00.449Z,22.00
2023-02-21T06:33:28.203Z,22.00
2023-02-21T06:35:55.923Z,22.00
2023-02-21T06:38:23.691Z,22.00
2023-02-21T06:40:51.695Z,22.00
2023-02-21T06:43:19.475Z,22.00
2023-02-21T06:45:48.579Z,22.00
2023-02-21T06:48:16.827Z,22.00
2023-02-21T06:50:44.946Z,22.00
2023-02-21T06:53:12.683Z,22.00
2023-02-21T06:55:40.381Z,22.00
2023-02-21T06:58:08.105Z,22.00
2023-02-21T07:00:35.968Z,22.00
2023-02-21T07:03:05.070Z,22.00
2023-02-21T07:05:34.592Z,22.00
2023-02-21T07:08:03.065Z,22.00
2023-02-21T07:10:31.140Z,22.00
2023-02-21T07:12:58.891Z,22.00
2023-02-21T07:15:26.953Z,22.00
2023-02-21T07:17:54.670Z,22.00
2023-02-21T07:20:24.063Z,22.00
2023-02-21T07:22:51.970Z,22.00
2023-02-21T07:25:22.571Z,22.00
2023-02-21T07:27:52.658Z,22.00
2023-02-21T07:30:20.893Z,22.00
2023-02-21T07:32:48.657Z,22.00
2023-02-21T07:35:16.425Z,22.00
2023-02-21T07:37:45.528Z,22.00
2023-02-21T07:40:13.349Z,22.00
2023-02-21T07:42:43.869Z,22.00
2023-02-21T07:45:12.025Z,22.10
2023-02-21T07:47:39.983Z,22.00
2023-02-21T07:50:08.328Z,22.10
2023-02-21T07:52:36.057Z,22.10
2023-02-21T07:55:05.529Z,22.10
2023-02-21T07:57:33.315Z,22.10
2023-02-21T08:00:01.088Z,22.10
2023-02-21T08:02:28.825Z,22.10
2023-02-21T08:04:56.631Z,22.10
2023-02-21T08:07:25.171Z,22.10
2023-02-21T08:09:52.922Z,22.10
2023-02-21T08:12:21.943Z,22.10
2023-02-21T08:14:49.682Z,22.10
2023-02-21T08:17:17.582Z,22.10
2023-02-21T08:19:45.348Z,22.10
2023-02-21T08:22:13.169Z,22.10
2023-02-21T08:24:40.948Z,22.10
2023-02-21T08:27:08.741Z,22.20
2023-02-21T08:29:37.856Z,22.20
2023-02-21T08:32:06.093Z,22.20
2023-02-21T08:34:33.909Z,22.20
2023-02-21T08:37:01.961Z,22.20
2023-02-21T08:39:31.818Z,22.30
2023-02-21T08:41:59.599Z,22.30
2023-02-21T08:44:27.347Z,22.30
2023-02-21T08:46:56.500Z,22.30
2023-02-21T08:49:24.463Z,22.30
2023-02-21T08:51:52.180Z,22.30
2023-02-21T08:54:20.265Z,22.40
2023-02-21T08:56:49.563Z,22.40
2023-02-21T08:59:17.343Z,22.40
2023-02-21T09:01:45.117Z,22.40
2023-02-21T09:04:14.428Z,22.40
2023-02-21T09:06:42.164Z,22.50
2023-02-21T09:09:09.936Z,22.50
2023-02-21T09:11:37.631Z,22.50
2023-02-21T09:14:06.506Z,22.60
2023-02-21T09:16:34.286Z,22.60
2023-02-21T09:19:02.001Z,22.60
2023-02-21T09:21:31.028Z,22.70
2023-02-21T09:23:59.749Z,22.70
2023-02-21T09:26:31.706Z,22.80
2023-02-21T09:28:59.688Z,22.90
2023-02-21T09:31:27.484Z,22.90
2023-02-21T09:33:55.763Z,22.90
2023-02-21T09:36:26.933Z,22.90
2023-02-21T09:38:56.371Z,22.80
2023-02-21T09:41:25.199Z,22.80
2023-02-21T09:43:55.539Z,22.80
2023-02-21T09:46:34.611Z,22.80
2023-02-21T09:49:03.709Z,22.80
2023-02-21T09:51:32.543Z,22.80
2023-02-21T09:54:02.899Z,22.80
2023-02-21T09:56:36.418Z,22.80
2023-02-21T09:59:04.749Z,22.70
2023-02-21T10:01:46.998Z,22.80
2023-02-21T10:04:20.114Z,22.80
2023-02-21T10:06:55.631Z,22.70
2023-02-21T10:09:37.881Z,22.70
2023-02-21T10:12:12.733Z,22.70
2023-02-21T10:14:58.978Z,22.70
2023-02-21T10:17:32.456Z,22.70
2023-02-21T10:20:05.132Z,22.70
2023-02-21T10:22:35.591Z,22.70
2023-02-21T10:25:21.652Z,22.80
2023-02-21T10:27:51.115Z,22.80
2023-02-21T10:30:26.718Z,22.70
2023-02-21T10:32:54.806Z,22.70
2023-02-21T10:35:22.635Z,22.70
2023-02-21T10:37:53.318Z,22.70
2023-02-21T10:40:30.724Z,22.80
2023-02-21T10:43:05.352Z,22.80
2023-02-21T10:45:39.324Z,22.80
2023-02-21T10:48:09.934Z,22.80
2023-02-21T10:50:41.286Z,22.80
2023-02-21T10:53:09.629Z,22.80
2023-02-21T10:55:38.738Z,22.80
2023-02-21T10:58:10.208Z,22.80
2023-02-21T11:00:39.761Z,22.90
2023-02-21T11:03:15.312Z,22.90
2023-02-21T11:05:50.602Z,22.90
2023-02-21T11:08:36.579Z,22.90
2023-02-21T11:11:05.881Z,22.90
2023-02-21T11:13:36.103Z,22.90
2023-02-21T11:16:12.729Z,23.00
2023-02-21T11:18:40.713Z,22.90
2023-02-21T11:21:14.555Z,23.00
2023-02-21T11:23:46.858Z,23.00
2023-02-21T11:26:16.727Z,23.00
2023-02-21T11:28:46.166Z,23.00
2023-02-21T11:31:22.457Z,22.90
2023-02-21T11:33:57.365Z,23.00
2023-02-21T11:36:29.689Z,22.90
2023-02-21T11:39:04.426Z,23.00
2023-02-21T11:41:39.187Z,23.00
2023-02-21T11:44:29.250Z,22.90
2023-02-21T11:47:07.988Z,23.00
2023-02-21T11:49:42.632Z,23.00
2023-02-21T11:52:13.669Z,23.00
2023-02-21T11:54:41.662Z,23.00
2023-02-21T11:57:18.953Z,23.00
2023-02-21T11:59:51.562Z,23.00
2023-02-21T12:02:33.017Z,23.00
2023-02-21T12:05:15.409Z,23.00
2023-02-21T12:07:50.706Z,23.00
2023-02-21T12:10:34.175Z,23.00
2023-02-21T12:13:11.908Z,23.00
2023-02-21T12:15:54.894Z,23.00
2023-02-21T12:18:40.328Z,23.10
2023-02-21T12:21:34.526Z,23.00
2023-02-21T12:24:13.642Z,23.00
2023-02-21T12:26:52.383Z,23.00
2023-02-21T12:29:36.006Z,23.00
2023-02-21T12:32:23.184Z,23.00
2023-02-21T12:35:05.949Z,23.00
2023-02-21T12:37:38.777Z,23.10
2023-02-21T12:40:20.545Z,23.00
2023-02-21T12:43:05.293Z,23.00
2023-02-21T12:45:50.619Z,23.00
2023-02-21T12:48:26.360Z,23.10
2023-02-21T12:50:58.449Z,23.10
2023-02-21T12:53:30.370Z,23.10
2023-02-21T12:56:04.738Z,23.10
2023-02-21T12:58:38.056Z,23.10
2023-02-21T13:01:11.841Z,23.10
2023-02-21T13:03:51.681Z,23.10
2023-02-21T13:06:23.313Z,23.10
2023-02-21T13:08:59.982Z,23.10
2023-02-21T13:11:33.649Z,23.10
2023-02-21T13:14:02.887Z,23.10
2023-02-21T13:16:32.630Z,23.10
2023-02-21T13:19:04.141Z,23.10
2023-02-21T13:21:46.612Z,23.10
2023-02-21T13:24:24.539Z,23.10
2023-02-21T13:27:02.998Z,23.10
2023-02-21T13:29:33.199Z,23.10
2023-02-21T13:32:08.811Z,23.10
2023-02-21T13:34:40.561Z,23.10
2023-02-21T13:37:18.964Z,23.10
2023-02-21T13:39:54.096Z,23.10
2023-02-21T13:42:25.827Z,23.10
2023-02-21T13:45:07.610Z,23.10
2023-02-21T13:48:19.823Z,23.10
2023-02-21T13:50:49.903Z,23.20
2023-02-21T13:53:20.048Z,23.10
2023-02-21T13:56:14.105Z,23.20
2023-02-21T13:58:44.918Z,23.20
2023-02-21T14:01:52.135Z,23.20
2023-02-21T14:05:02.498Z,23.20
2023-02-21T14:08:01.741Z,23.20
2023-02-21T14:10:44.173Z,23.20
2023-02-21T14:13:27.114Z,23.20
2023-02-21T14:16:00.502Z,23.20
2023-02-21T14:18:32.668Z,23.20
2023-02-21T14:21:01.372Z,23.20
2023-02-21T14:23:42.336Z,23.20
2023-02-21T14:26:40.058Z,23.20
2023-02-21T14:29:15.316Z,23.30
2023-02-21T14:31:52.349Z,23.20
2023-02-21T14:34:25.315Z,23.30
2023-02-21T14:36:55.237Z,23.30
2023-02-21T14:39:24.190Z,23.30
2023-02-21T14:42:04.321Z,23.30
2023-02-21T14:44:38.767Z,23.30
2023-02-21T14:47:34.421Z,23.30
2023-02-21T14:50:14.626Z,23.30
2023-02-21T14:53:03.579Z,23.40
2023-02-21T14:55:44.836Z,23.40
2023-02-21T14:58:53.862Z,23.40
2023-02-21T15:01:38.824Z,23.40
2023-02-21T15:04:21.626Z,23.40
2023-02-21T15:07:14.604Z,23.40
2023-02-21T15:09:42.404Z,23.40
2023-02-21T15:12:15.839Z,23.40
2023-02-21T15:14:50.500Z,23.40
2023-02-21T15:17:21.863Z,23.50
2023-02-21T15:20:05.608Z,23.50
2023-02-21T15:22:33.381Z,23.50
2023-02-21T15:25:20.922Z,23.50
2023-02-21T15:28:03.258Z,23.50
2023-02-21T15:30:36.515Z,23.50
2023-02-21T15:33:23.168Z,23.50
2023-02-21T15:35:53.782Z,23.50
2023-02-21T15:38:29.856Z,23.50
2023-02-21T15:41:03.290Z,23.50
2023-02-21T15:43:47.452Z,23.50
2023-02-21T15:46:22.307Z,23.50
2023-02-21T15:48:51.153Z,23.50
2023-02-21T15:51:19.304Z,23.50
2023-02-21T15:54:08.671Z,23.50
2023-02-21T15:56:36.489Z,23.50
2023-02-21T15:59:13.394Z,23.50
2023-02-21T16:01:42.889Z,23.50
2023-02-21T16:04:20.123Z,23.50
2023-02-21T16:06:51.930Z,23.50
2023-02-21T16:09:25.548Z,23.50
2023-02-21T16:11:57.055Z,23.50
2023-02-21T16:14:28.689Z,23.50
2023-02-21T16:17:09.162Z,23.50
2023-02-21T16:19:37.830Z,23.50
2023-02-21T16:22:13.650Z,23.40
2023-02-21T16:24:41.661Z,23.40
2023-02-21T16:27:13.034Z,23.40
2023-02-21T16:29:40.729Z,23.40
2023-02-21T16:32:18.436Z,23.30
2023-02-21T16:34:46.743Z,23.30
2023-02-21T16:37:15.485Z,23.30
2023-02-21T16:39:43.761Z,23.30
2023-02-21T16:42:11.481Z,23.30
2023-02-21T16:44:39.185Z,23.20
2023-02-21T16:47:08.610Z,23.20
2023-02-21T16:49:36.343Z,23.20
2023-02-21T16:52:04.215Z,23.20
2023-02-21T16:54:31.973Z,23.10
2023-02-21T16:56:59.703Z,23.10
2023-02-21T16:59:27.443Z,23.10
2023-02-21T17:01:55.286Z,23.10
2023-02-21T17:04:26.848Z,23.10
2023-02-21T17:06:57.712Z,23.10
2023-02-21T17:09:27.330Z,23.00
2023-02-21T17:11:55.611Z,23.00
2023-02-21T17:14:23.516Z,23.00
2023-02-21T17:16:51.259Z,23.00
2023-02-21T17:19:21.541Z,23.00
2023-02-21T17:21:52.152Z,22.90
2023-02-21T17:24:21.385Z,22.90
2023-02-21T17:26:49.135Z,22.90
2023-02-21T17:29:16.814Z,22.90
2023-02-21T17:31:44.656Z,22.90
2023-02-21T17:34:13.972Z,22.90
2023-02-21T17:36:41.944Z,22.90
2023-02-21T17:39:11.173Z,22.90
2023-02-21T17:41:45.536Z,22.90
2023-02-21T17:44:13.261Z,22.90
2023-02-21T17:46:41.119Z,22.90
2023-02-21T17:49:08.824Z,22.90
2023-02-21T17:51:36.541Z,22.80
2023-02-21T17:54:04.427Z,22.80
2023-02-21T17:56:33.521Z,22.80
2023-02-21T17:59:01.531Z,22.80
2023-02-21T18:01:29.395Z,22.80
2023-02-21T18:03:57.106Z,22.80
2023-02-21T18:06:24.817Z,22.80
2023-02-21T18:08:52.912Z,22.80
2023-02-21T18:11:20.762Z,22.70
2023-02-21T18:13:49.872Z,22.80
2023-02-21T18:16:18.106Z,22.80
2023-02-21T18:18:46.253Z,22.70
2023-02-21T18:21:15.710Z,22.70
2023-02-21T18:23:45.894Z,22.70
2023-02-21T18:26:14.054Z,22.70
2023-02-21T18:28:42.123Z,22.70
2023-02-21T18:31:11.312Z,22.70
2023-02-21T18:33:39.113Z,22.70
2023-02-21T18:36:09.753Z,22.70
2023-02-21T18:38:39.826Z,22.70
2023-02-21T18:41:11.348Z,22.70
2023-02-21T18:43:40.663Z,22.70
2023-02-21T18:46:12.608Z,22.70
2023-02-21T18:48:43.354Z,22.70
2023-02-21T18:51:12.172Z,22.70
2023-02-21T18:53:39.947Z,22.70
2023-02-21T18:56:10.423Z,22.70
2023-02-21T18:58:38.394Z,22.70
2023-02-21T19:01:07.121Z,22.60
2023-02-21T19:03:36.243Z,22.60
2023-02-21T19:06:06.150Z,22.60
2023-02-21T19:08:33.877Z,22.60
2023-02-21T19:11:01.566Z,22.60
2023-02-21T19:13:29.293Z,22.60
2023-02-21T19:15:57.277Z,22.60
2023-02-21T19:18:25.053Z,22.60
2023-02-21T19:20:57.431Z,22.60
2023-02-21T19:23:27.268Z,22.60
2023-02-21T19:25:55.211Z,22.60
2023-02-21T19:28:23.998Z,22.60
2023-02-21T19:30:51.832Z,22.60
2023-02-21T19:33:19.832Z,22.60
2023-02-21T19:35:47.545Z,22.60
2023-02-21T19:38:16.808Z,22.60
2023-02-21T19:40:44.713Z,22.60
2023-02-21T19:43:12.414Z,22.60
2023-02-21T19:45:40.201Z,22.60
2023-02-21T19:48:08.439Z,22.60
2023-02-21T19:50:36.559Z,22.50
2023-02-21T19:53:04.773Z,22.60
2023-02-21T19:55:33.859Z,22.60
2023-02-21T19:58:06.400Z,22.50
2023-02-21T20:00:34.405Z,22.50
2023-02-21T20:03:02.138Z,22.50
2023-02-21T20:05:29.841Z,22.50
2023-02-21T20:07:58.729Z,22.50
2023-02-21T20:10:26.802Z,22.50
2023-02-21T20:12:56.626Z,22.50
2023-02-21T20:15:24.488Z,22.50
2023-02-21T20:17:54.077Z,22.50
2023-02-21T20:20:22.282Z,22.50
2023-02-21T20:22:50.034Z,22.50
2023-02-21T20:25:17.965Z,22.50
2023-02-21T20:27:45.745Z,22.50
2023-02-21T20:30:16.870Z,22.50
2023-02-21T20:32:44.639Z,22.50
2023-02-21T20:35:12.511Z,22.60
2023-02-21T20:37:40.210Z,22.60
2023-02-21T20:40:10.900Z,22.50
2023-02-21T20:42:38.962Z,22.60
2023-02-21T20:45:07.965Z,22.60
2023-02-21T20:47:37.204Z,22.60
2023-02-21T20:50:07.509Z,22.60
2023-02-21T20:52:35.570Z,22.50
2023-02-21T20:55:03.387Z,22.50
2023-02-21T20:57:31.402Z,22.50
2023-02-21T20:59:59.107Z,22.50
2023-02-21T21:02:26.794Z,22.50
2023-02-21T21:04:55.822Z,22.60
2023-02-21T21:07:25.044Z,22.50
2023-02-21T21:09:52.989Z,22.60
2023-02-21T21:12:23.580Z,22.60
2023-02-21T21:14:53.942Z,22.50
2023-02-21T21:17:22.377Z,22.50
2023-02-21T21:19:50.643Z,22.50
2023-02-21T21:22:21.552Z,22.50
2023-02-21T21:24:51.875Z,22.50
2023-02-21T21:27:21.569Z,22.50
2023-02-21T21:29:50.253Z,22.50
2023-02-21T21:32:21.636Z,22.50
2023-02-21T21:34:51.440Z,22.50
2023-02-21T21:37:23.151Z,22.50
2023-02-21T21:39:54.240Z,22.50
2023-02-21T21:42:24.921Z,22.50
2023-02-21T21:44:54.488Z,22.50
2023-02-21T21:47:23.012Z,22.50
2023-02-21T21:49:51.236Z,22.50
2023-02-21T21:52:21.599Z,22.50
2023-02-21T21:54:49.522Z,22.50
2023-02-21T21:57:18.992Z,22.50
2023-02-21T21:59:51.225Z,22.50
2023-02-21T22:02:19.995Z,22.50
2023-02-21T22:04:48.075Z,22.50
2023-02-21T22:07:17.376Z,22.50
2023-02-21T22:09:47.280Z,22.50
2023-02-21T22:12:17.639Z,22.50
2023-02-21T22:14:45.372Z,22.50
2023-02-21T22:17:13.076Z,22.50
2023-02-21T22:19:41.463Z,22.50
2023-02-21T22:22:09.165Z,22.50
2023-02-21T22:24:40.526Z,22.50
2023-02-21T22:27:09.640Z,22.40
2023-02-21T22:29:37.357Z,22.40
2023-02-21T22:32:07.168Z,22.40
2023-02-21T22:34:34.983Z,22.40
2023-02-21T22:37:02.677Z,22.40
2023-02-21T22:39:30.886Z,22.40
2023-02-21T22:41:58.582Z,22.40
2023-02-21T22:44:27.626Z,22.40
2023-02-21T22:46:58.286Z,22.40
2023-02-21T22:49:26.505Z,22.40
2023-02-21T22:51:54.294Z,22.40
2023-02-21T22:54:22.063Z,22.40
2023-02-21T22:56:54.494Z,22.40
2023-02-21T22:59:25.077Z,22.40
2023-02-21T23:01:54.374Z,22.40
2023-02-21T23:04:26.433Z,22.40
2023-02-21T23:06:55.276Z,22.40
2023-02-21T23:09:24.355Z,22.40
2023-02-21T23:11:54.362Z,22.40
2023-02-21T23:14:22.901Z,22.40
2023-02-21T23:16:51.195Z,22.40
2023-02-21T23:19:20.294Z,22.40
2023-02-21T23:21:50.232Z,22.40
2023-02-21T23:24:19.846Z,22.40
2023-02-21T23:26:48.794Z,22.40
2023-02-21T23:29:19.323Z,22.40
2023-02-21T23:31:48.307Z,22.40
2023-02-21T23:34:16.329Z,22.40
2023-02-21T23:36:45.370Z,22.40
2023-02-21T23:39:15.085Z,22.40
2023-02-21T23:41:48.810Z,22.40
2023-02-21T23:44:17.389Z,22.40
2023-02-21T23:46:45.855Z,22.40
2023-02-21T23:49:15.706Z,22.40
2023-02-21T23:51:46.608Z,22.40
2023-02-21T23:54:15.022Z,22.40
2023-02-21T23:56:46.841Z,22.40
2023-02-21T23:59:15.961Z,22.40
